EEKEEETN

Guest
Details From EEKE - KURESSAARE
To EETN - TALLINN
Flight Number -
Tags generated
Created
Modified
Stats Distance 101 nm / 188 km
Max Altitude 13,200 ft / 4,023 m
Waypoints 3
Social Downloads 2
Likes 0
Share VATSIM

Download

Looking for another format? Having issues loading an existing format? Contact us
Advertisement - Login to hide

Notes

Basic altitude profile: - Ascent Rate: 2500ft/min - Ascent Speed: 250kts - Cruise Altitude: 35000ft - Cruise Speed: 420kts - Descent Rate: 1500ft/min - Descent Speed: 250kts

Route

EEKE MASIS EETN

ID Type Via Altitude Latitude Longitude Leg Dist Tot Dist Heading (true) Name
O EEKE APT - 0 ft / 0 m 58.23046˚ 22.51124˚ - 0 nm - KURESSAARE
MASIS FIX - 13,200 ft / 4,023 m 58.65583˚ 23.36917˚ 37 nm 37 nm 46° / 47° -
O EETN APT - 0 ft / 0 m 59.41326˚ 24.83280˚ 64 nm 101 nm 44° / 45° TALLINN

Altitude Profile

Advertisement - Login to hide

EEKE

Details ICAO EEKE (URE)
Name KURESSAARE
Region Estonia
Timezone Europe/Tallinn (UTC+2.0)
Stats Elevation 14 ft / 4 m (AMSL)
Location 58.230459° 22.511240°
Runways 2
Magnetic Variation 7.492° E

METAR

EEKE 131950Z AUTO 21016KT 9999NDV FEW018 SCT028 BKN047 03/01 Q1001

Decode

TAF

Not found

Departure Runways

ID Width Length Bearing (true) Bearing (mag) Surface Threshold Offset Overrun Length
05 98 ft / 30 m 2,615 ft / 797 m 58.67° 51.18° Asphalt 0 ft / 0 m 197 ft / 60 m
17 98 ft / 30 m 4,973 ft / 1,516 m 179.57° 172.08° Asphalt 0 ft / 0 m 197 ft / 60 m
23 98 ft / 30 m 2,615 ft / 797 m 238.68° 231.19° Asphalt 0 ft / 0 m 197 ft / 60 m
35 98 ft / 30 m 4,973 ft / 1,516 m 359.58° 352.09° Asphalt 0 ft / 0 m 197 ft / 60 m

EETN

Details ICAO EETN (TLL)
Name TALLINN
Region Estonia
Timezone Europe/Tallinn (UTC+2.0)
Stats Elevation 131 ft / 40 m (AMSL)
Location 59.413257° 24.832803°
Runways 1
Magnetic Variation 8.635° E

METAR

EETN 132020Z 20010KT 9999 FEW045 01/M00 Q1000 R08/810295 NOSIG

Decode

TAF

TAF TAF EETN 131730Z 1318/1418 22015KT 9999 BKN010 OVC020 BECMG 1404/1406 16015G25KT BECMG 1407/1409 SCT020

Decode

Destination Runways

ID Width Length Bearing (true) Bearing (mag) Surface Threshold Offset Overrun Length
08 148 ft / 45 m 10,023 ft / 3,055 m 90.24° 81.60° Asphalt 820 ft / 250 m 0 ft / 0 m
26 148 ft / 45 m 10,023 ft / 3,055 m 270.28° 261.64° Asphalt 0 ft / 0 m 184 ft / 56 m

Approach Navaids

Runway Type Ident Frequency Range Bearing (true) Bearing (mag) Slope Elevation
08 Localiser IIB 111.70 MHz 18 nm / 33 km 90.33° 81.69° - 131 ft / 40 m (AMSL)
08 Glidescope IIB 111.70 MHz 10 nm / 19 km 90.26° 81.63° 3.00° 131 ft / 40 m (AMSL)
26 Localiser ILK 110.30 MHz 18 nm / 33 km 270.24° 261.61° - 131 ft / 40 m (AMSL)
26 Glidescope ILK 110.30 MHz 10 nm / 19 km 270.26° 261.63° 3.00° 131 ft / 40 m (AMSL)

Popular Alternatives